createdAt,value
2018-02-16T00:00:40.856Z,101590.02
2018-02-16T00:01:45.057Z,101594.29
2018-02-16T00:02:49.247Z,101593.02
2018-02-16T00:03:53.465Z,101595.09
2018-02-16T00:04:57.683Z,101594.16
2018-02-16T00:06:02.186Z,101597.47
2018-02-16T00:07:06.575Z,101598.33
2018-02-16T00:08:11.595Z,101597.47
2018-02-16T00:09:16.625Z,101594.08
2018-02-16T00:10:21.584Z,101601.78
2018-02-16T00:11:25.804Z,101598.47
2018-02-16T00:12:30.007Z,101598.91
2018-02-16T00:13:34.632Z,101599.34
2018-02-16T00:14:39.050Z,101600.20
2018-02-16T00:15:43.321Z,101601.86
2018-02-16T00:16:47.534Z,101605.25
2018-02-16T00:17:52.492Z,101604.39
2018-02-16T00:18:56.690Z,101605.65
2018-02-16T00:20:01.672Z,101612.41
2018-02-16T00:21:06.909Z,101611.52
2018-02-16T00:22:14.578Z,101611.03
2018-02-16T00:23:18.870Z,101612.66
2018-02-16T00:24:23.047Z,101618.18
2018-02-16T00:25:27.250Z,101616.91
2018-02-16T00:26:31.460Z,101614.84
2018-02-16T00:27:37.425Z,101615.23
2018-02-16T00:28:41.841Z,101616.98
2018-02-16T00:29:46.860Z,101621.23
2018-02-16T00:30:51.043Z,101620.42
2018-02-16T00:31:55.232Z,101623.34
2018-02-16T00:32:59.424Z,101626.30
2018-02-16T00:34:05.164Z,101624.60
2018-02-16T00:35:09.493Z,101622.41
2018-02-16T00:36:14.085Z,101628.70
2018-02-16T00:37:19.049Z,101619.42
2018-02-16T00:38:23.250Z,101624.52
2018-02-16T00:39:27.460Z,101621.20
2018-02-16T00:40:31.709Z,101624.59
2018-02-16T00:41:36.935Z,101624.60
2018-02-16T00:42:41.237Z,101617.85
2018-02-16T00:43:46.515Z,101622.51
2018-02-16T00:44:50.688Z,101624.64
2018-02-16T00:45:54.916Z,101621.72
2018-02-16T00:46:59.137Z,101620.92
2018-02-16T00:48:03.727Z,101619.17
2018-02-16T00:49:08.291Z,101614.94
2018-02-16T00:50:13.578Z,101622.12
2018-02-16T00:51:17.771Z,101629.67
2018-02-16T00:52:21.951Z,101628.41
2018-02-16T00:53:26.203Z,101626.27
2018-02-16T00:54:30.405Z,101625.77
2018-02-16T00:55:35.009Z,101630.36
2018-02-16T00:56:39.310Z,101629.84
2018-02-16T00:57:43.591Z,101626.05
2018-02-16T00:58:47.902Z,101631.56
2018-02-16T00:59:52.087Z,101627.77
2018-02-16T01:00:56.286Z,101624.92
2018-02-16T01:02:00.475Z,101626.63
2018-02-16T01:03:05.635Z,101630.41
2018-02-16T01:04:10.676Z,101630.82
2018-02-16T01:05:14.978Z,101633.28
2018-02-16T01:06:19.179Z,101637.06
2018-02-16T01:07:23.381Z,101636.66
2018-02-16T01:08:27.578Z,101637.95
2018-02-16T01:09:32.643Z,101637.95
2018-02-16T01:10:38.160Z,101642.48
2018-02-16T01:11:42.673Z,101643.33
2018-02-16T01:12:46.954Z,101644.98
2018-02-16T01:13:51.153Z,101646.58
2018-02-16T01:14:55.359Z,101646.96
2018-02-16T01:15:59.568Z,101644.39
2018-02-16T01:17:03.973Z,101652.81
2018-02-16T01:18:08.770Z,101643.92
2018-02-16T01:19:13.134Z,101649.77
2018-02-16T01:20:18.239Z,101652.23
2018-02-16T01:21:22.446Z,101646.72
2018-02-16T01:22:26.637Z,101644.56
2018-02-16T01:23:30.839Z,101651.30
2018-02-16T01:24:35.692Z,101648.78
2018-02-16T01:25:40.355Z,101648.31
2018-02-16T01:26:45.485Z,101651.72
2018-02-16T01:27:49.695Z,101657.96
2018-02-16T01:28:53.891Z,101651.63
2018-02-16T01:29:58.143Z,101652.48
2018-02-16T01:31:04.011Z,101660.48
2018-02-16T01:32:09.444Z,101662.59
2018-02-16T01:33:13.729Z,101658.40
2018-02-16T01:34:18.727Z,101659.27
2018-02-16T01:35:22.954Z,101658.84
2018-02-16T01:36:27.167Z,101661.86
2018-02-16T01:37:31.364Z,101660.11
2018-02-16T01:38:35.934Z,101657.20
2018-02-16T01:39:40.572Z,101660.58
2018-02-16T01:40:44.902Z,101662.30
2018-02-16T01:41:49.143Z,101659.34
2018-02-16T01:42:53.328Z,101663.19
2018-02-16T01:43:57.522Z,101663.63
2018-02-16T01:45:02.030Z,101662.77
2018-02-16T01:46:07.010Z,101663.31
2018-02-16T01:47:11.783Z,101660.72
2018-02-16T01:48:15.992Z,101676.33
2018-02-16T01:49:20.181Z,101672.08
2018-02-16T01:50:25.149Z,101677.51
2018-02-16T01:51:29.353Z,101682.55
2018-02-16T01:52:33.786Z,101677.41
2018-02-16T01:53:39.094Z,101674.54
2018-02-16T01:54:43.336Z,101680.47
2018-02-16T01:55:47.553Z,101680.47
2018-02-16T01:56:51.732Z,101683.39
2018-02-16T01:57:55.936Z,101682.48
2018-02-16T01:59:00.134Z,101686.34
2018-02-16T02:00:05.885Z,101685.45
2018-02-16T02:01:10.180Z,101690.48
2018-02-16T02:02:15.257Z,101677.47
2018-02-16T02:03:19.478Z,101683.00
2018-02-16T02:04:23.693Z,101679.24
2018-02-16T02:05:27.882Z,101685.17
2018-02-16T02:06:32.184Z,101687.69
2018-02-16T02:07:37.621Z,101685.22
2018-02-16T02:08:42.029Z,101681.41
2018-02-16T02:09:46.299Z,101683.55
2018-02-16T02:10:50.495Z,101691.56
2018-02-16T02:11:54.681Z,101689.85
2018-02-16T02:12:58.890Z,101692.43
2018-02-16T02:14:03.286Z,101689.09
2018-02-16T02:15:08.432Z,101696.24
2018-02-16T02:16:13.213Z,101695.02
2018-02-16T02:17:17.459Z,101693.33
2018-02-16T02:18:21.687Z,101693.31
2018-02-16T02:19:25.885Z,101693.70
2018-02-16T02:20:30.071Z,101700.89
2018-02-16T02:21:35.056Z,101690.34
2018-02-16T02:22:39.643Z,101696.66
2018-02-16T02:23:44.118Z,101694.09
2018-02-16T02:24:49.132Z,101701.23
2018-02-16T02:25:53.351Z,101698.22
2018-02-16T02:26:57.558Z,101699.41
2018-02-16T02:28:01.822Z,101704.43
2018-02-16T02:29:08.381Z,101700.20
2018-02-16T02:30:12.930Z,101704.37
2018-02-16T02:31:17.564Z,101703.10
2018-02-16T02:32:21.748Z,101701.42
2018-02-16T02:33:25.947Z,101704.74
2018-02-16T02:34:30.137Z,101711.47
2018-02-16T02:35:35.567Z,101711.48
2018-02-16T02:36:41.108Z,101708.89
2018-02-16T02:37:45.928Z,101711.81
2018-02-16T02:38:50.135Z,101714.69
2018-02-16T02:39:54.312Z,101715.59
2018-02-16T02:40:58.558Z,101716.83
2018-02-16T02:42:03.152Z,101706.73
2018-02-16T02:43:09.363Z,101710.95
2018-02-16T02:44:14.240Z,101711.42
2018-02-16T02:45:19.532Z,101718.54
2018-02-16T02:46:23.750Z,101714.69
2018-02-16T02:47:28.008Z,101719.36
2018-02-16T02:48:32.787Z,101724.95
2018-02-16T02:49:38.280Z,101727.45
2018-02-16T02:50:43.389Z,101728.59
2018-02-16T02:51:47.771Z,101734.45
2018-02-16T02:52:51.974Z,101731.97
2018-02-16T02:53:56.170Z,101732.75
2018-02-16T02:55:01.116Z,101732.33
2018-02-16T02:56:05.856Z,101736.52
2018-02-16T02:57:10.341Z,101732.72
2018-02-16T02:58:14.584Z,101733.06
2018-02-16T02:59:18.801Z,101735.56
2018-02-16T03:00:22.988Z,101739.36
2018-02-16T03:01:27.185Z,101739.02
2018-02-16T03:02:32.224Z,101740.64
2018-02-16T03:03:39.338Z,101741.87
2018-02-16T03:04:43.760Z,101746.91
2018-02-16T03:05:48.759Z,101747.28
2018-02-16T03:06:52.949Z,101749.39
2018-02-16T03:07:57.935Z,101743.53
2018-02-16T03:09:02.345Z,101746.49
2018-02-16T03:10:09.363Z,101750.70
2018-02-16T03:11:14.123Z,101754.84
2018-02-16T03:12:18.508Z,101756.86
2018-02-16T03:13:23.486Z,101760.27
2018-02-16T03:14:27.677Z,101759.73
2018-02-16T03:15:31.885Z,101758.41
2018-02-16T03:16:37.810Z,101758.39
2018-02-16T03:17:42.530Z,101759.98
2018-02-16T03:18:47.489Z,101762.52
2018-02-16T03:19:51.660Z,101759.09
2018-02-16T03:20:56.636Z,101757.78
2018-02-16T03:22:00.876Z,101758.56
2018-02-16T03:23:07.221Z,101761.07
2018-02-16T03:24:11.567Z,101760.64
2018-02-16T03:25:16.570Z,101764.78
2018-02-16T03:26:20.765Z,101768.16
2018-02-16T03:27:25.021Z,101762.64
2018-02-16T03:28:29.979Z,101768.94
2018-02-16T03:29:35.157Z,101768.57
2018-02-16T03:30:40.602Z,101770.27
2018-02-16T03:31:45.717Z,101770.23
2018-02-16T03:32:49.969Z,101770.66
2018-02-16T03:33:54.921Z,101775.59
2018-02-16T03:34:59.091Z,101778.53
2018-02-16T03:36:04.101Z,101778.09
2018-02-16T03:37:09.419Z,101773.88
2018-02-16T03:38:13.828Z,101781.86
2018-02-16T03:39:18.072Z,101773.86
2018-02-16T03:40:22.262Z,101775.12
2018-02-16T03:41:26.463Z,101778.93
2018-02-16T03:42:30.643Z,101785.20
2018-02-16T03:43:36.915Z,101781.80
2018-02-16T03:44:41.408Z,101777.97
2018-02-16T03:45:46.015Z,101779.20
2018-02-16T03:46:50.209Z,101783.36
2018-02-16T03:47:54.391Z,101789.28
2018-02-16T03:48:58.644Z,101791.84
2018-02-16T03:50:03.936Z,101790.98
2018-02-16T03:51:09.131Z,101789.36
2018-02-16T03:52:13.994Z,101789.73
2018-02-16T03:53:18.213Z,101789.31
2018-02-16T03:54:22.423Z,101787.56
2018-02-16T03:55:26.623Z,101791.72
2018-02-16T03:56:30.844Z,101792.13
2018-02-16T03:57:36.476Z,101794.20
2018-02-16T03:58:42.601Z,101794.64
2018-02-16T03:59:46.936Z,101791.68
2018-02-16T04:00:51.150Z,101791.27
2018-02-16T04:01:55.379Z,101796.31
2018-02-16T04:02:59.594Z,101797.51
2018-02-16T04:04:05.106Z,101798.80
2018-02-16T04:05:09.658Z,101796.73
2018-02-16T04:06:13.999Z,101803.41
2018-02-16T04:07:18.252Z,101804.23
2018-02-16T04:08:22.465Z,101812.58
2018-02-16T04:09:26.643Z,101812.18
2018-02-16T04:10:30.838Z,101813.30
2018-02-16T04:11:35.968Z,101813.25
2018-02-16T04:12:40.549Z,101809.92
2018-02-16T04:13:44.949Z,101814.13
2018-02-16T04:14:49.184Z,101810.77
2018-02-16T04:15:53.434Z,101812.91
2018-02-16T04:16:57.652Z,101809.06
2018-02-16T04:18:01.895Z,101808.61
2018-02-16T04:19:08.582Z,101814.44
2018-02-16T04:20:13.909Z,101819.87
2018-02-16T04:21:18.298Z,101811.90
2018-02-16T04:22:23.277Z,101816.05
2018-02-16T04:23:27.485Z,101815.64
2018-02-16T04:24:31.732Z,101820.20
2018-02-16T04:25:38.920Z,101819.80
2018-02-16T04:26:44.116Z,101825.73
2018-02-16T04:27:48.314Z,101825.32
2018-02-16T04:28:52.511Z,101825.81
2018-02-16T04:29:56.725Z,101827.05
2018-02-16T04:31:00.917Z,101824.93
2018-02-16T04:32:06.004Z,101832.94
2018-02-16T04:33:11.131Z,101827.92
2018-02-16T04:34:16.338Z,101835.91
2018-02-16T04:35:20.538Z,101837.17
2018-02-16T04:36:24.744Z,101834.98
2018-02-16T04:37:28.971Z,101837.97
2018-02-16T04:38:33.411Z,101837.53
2018-02-16T04:39:38.442Z,101840.91
2018-02-16T04:40:43.823Z,101835.47
2018-02-16T04:41:48.040Z,101836.80
2018-02-16T04:42:52.238Z,101838.47
2018-02-16T04:43:57.205Z,101843.14
2018-02-16T04:45:01.502Z,101848.70
2018-02-16T04:46:08.080Z,101844.06
2018-02-16T04:47:12.852Z,101844.41
2018-02-16T04:48:17.854Z,101849.48
2018-02-16T04:49:22.056Z,101846.56
2018-02-16T04:50:26.242Z,101843.20
2018-02-16T04:51:30.452Z,101854.96
2018-02-16T04:52:35.837Z,101854.16
2018-02-16T04:53:40.736Z,101848.22
2018-02-16T04:54:45.277Z,101849.89
2018-02-16T04:55:49.491Z,101860.43
2018-02-16T04:56:53.690Z,101859.98
2018-02-16T04:57:57.920Z,101859.53
2018-02-16T04:59:02.287Z,101861.25
2018-02-16T05:00:08.005Z,101868.08
2018-02-16T05:01:12.475Z,101868.10
2018-02-16T05:02:16.894Z,101869.31
2018-02-16T05:03:21.100Z,101871.34
2018-02-16T05:04:25.279Z,101871.81
2018-02-16T05:05:29.491Z,101876.40
2018-02-16T05:06:34.656Z,101872.61
2018-02-16T05:07:39.274Z,101876.81
2018-02-16T05:08:43.576Z,101879.27
2018-02-16T05:09:47.836Z,101872.95
2018-02-16T05:10:52.028Z,101880.89
2018-02-16T05:11:56.254Z,101877.95
2018-02-16T05:13:00.454Z,101881.36
2018-02-16T05:14:05.307Z,101883.88
2018-02-16T05:15:09.878Z,101885.66
2018-02-16T05:16:14.181Z,101889.85
2018-02-16T05:17:18.375Z,101883.16
2018-02-16T05:18:22.593Z,101891.52
2018-02-16T05:19:26.815Z,101885.58
2018-02-16T05:20:31.039Z,101884.41
2018-02-16T05:21:36.239Z,101886.08
2018-02-16T05:22:42.670Z,101895.00
2018-02-16T05:23:47.681Z,101891.67
2018-02-16T05:24:51.929Z,101887.96
2018-02-16T05:25:56.877Z,101891.39
2018-02-16T05:27:01.067Z,101893.96
2018-02-16T05:28:06.051Z,101891.05
2018-02-16T05:29:11.177Z,101895.22
2018-02-16T05:30:16.046Z,101899.42
2018-02-16T05:31:21.010Z,101904.91
2018-02-16T05:32:25.226Z,101902.80
2018-02-16T05:33:29.445Z,101902.31
2018-02-16T05:34:34.611Z,101898.96
2018-02-16T05:35:40.326Z,101907.00
2018-02-16T05:36:44.599Z,101905.30
2018-02-16T05:37:48.809Z,101906.52
2018-02-16T05:38:53.751Z,101899.81
2018-02-16T05:39:57.934Z,101901.13
2018-02-16T05:41:03.102Z,101906.54
2018-02-16T05:42:07.663Z,101900.58
2018-02-16T05:43:11.933Z,101910.28
2018-02-16T05:44:16.278Z,101908.94
2018-02-16T05:45:20.455Z,101911.00
2018-02-16T05:46:24.654Z,101911.41
2018-02-16T05:47:28.855Z,101919.42
2018-02-16T05:48:34.595Z,101919.79
2018-02-16T05:49:39.301Z,101916.75
2018-02-16T05:50:44.802Z,101920.92
2018-02-16T05:51:49.038Z,101920.11
2018-02-16T05:52:53.239Z,101922.22
2018-02-16T05:53:57.460Z,101926.39
2018-02-16T05:55:01.676Z,101929.77
2018-02-16T05:56:06.779Z,101932.75
2018-02-16T05:57:11.981Z,101930.55
2018-02-16T05:58:16.333Z,101929.69
2018-02-16T05:59:20.506Z,101932.58
2018-02-16T06:00:24.688Z,101937.19
2018-02-16T06:01:28.888Z,101934.61
2018-02-16T06:02:33.276Z,101945.22
2018-02-16T06:03:37.954Z,101933.84
2018-02-16T06:04:43.327Z,101936.80
2018-02-16T06:05:47.549Z,101938.29
2018-02-16T06:06:51.727Z,101936.08
2018-02-16T06:07:55.925Z,101940.38
2018-02-16T06:09:00.130Z,101940.64
2018-02-16T06:10:06.713Z,101940.48
2018-02-16T06:11:11.667Z,101935.80
2018-02-16T06:12:15.923Z,101938.20
2018-02-16T06:13:20.883Z,101938.20
2018-02-16T06:14:25.130Z,101940.69
2018-02-16T06:15:29.332Z,101939.88
2018-02-16T06:16:34.216Z,101948.68
2018-02-16T06:17:39.931Z,101944.87
2018-02-16T06:18:44.342Z,101945.81
2018-02-16T06:19:48.589Z,101951.28
2018-02-16T06:20:52.781Z,101952.08
2018-02-16T06:21:57.803Z,101952.96
2018-02-16T06:23:02.211Z,101953.73
2018-02-16T06:24:07.104Z,101961.33
2018-02-16T06:25:11.941Z,101961.33
2018-02-16T06:26:16.392Z,101967.30
2018-02-16T06:27:21.414Z,101960.04
2018-02-16T06:28:25.612Z,101968.87
2018-02-16T06:29:29.783Z,101963.39
2018-02-16T06:30:34.299Z,101968.87
2018-02-16T06:31:40.304Z,101968.08
2018-02-16T06:32:44.708Z,101967.67
2018-02-16T06:33:48.918Z,101970.69
2018-02-16T06:34:53.128Z,101966.89
2018-02-16T06:35:57.335Z,101978.69
2018-02-16T06:37:01.606Z,101982.05
2018-02-16T06:38:07.664Z,101984.98
2018-02-16T06:39:12.059Z,101978.69
2018-02-16T06:40:16.387Z,101986.66
2018-02-16T06:41:20.581Z,101985.31
2018-02-16T06:42:25.555Z,101985.31
2018-02-16T06:43:29.864Z,101986.94
2018-02-16T06:44:34.479Z,101987.38
2018-02-16T06:45:40.117Z,101987.32
2018-02-16T06:46:44.474Z,101985.64
2018-02-16T06:47:49.497Z,101986.74
2018-02-16T06:48:53.694Z,101987.10
2018-02-16T06:49:57.895Z,101987.06
2018-02-16T06:51:02.184Z,101990.45
2018-02-16T06:52:07.042Z,101990.45
2018-02-16T06:53:11.421Z,101994.66
2018-02-16T06:54:15.802Z,101999.59
2018-02-16T06:55:19.998Z,101999.16
2018-02-16T06:56:24.244Z,101995.84
2018-02-16T06:57:28.423Z,102003.79
2018-02-16T06:58:32.883Z,102008.86
2018-02-16T06:59:37.711Z,102011.36
2018-02-16T07:00:42.941Z,102005.46
2018-02-16T07:01:47.142Z,102008.84
2018-02-16T07:02:52.096Z,102013.34
2018-02-16T07:03:56.351Z,102013.31
2018-02-16T07:05:00.544Z,102015.12
2018-02-16T07:06:07.229Z,102017.27
2018-02-16T07:07:11.844Z,102018.94
2018-02-16T07:08:16.120Z,102016.85
2018-02-16T07:09:20.303Z,102015.16
2018-02-16T07:10:25.250Z,102015.50
2018-02-16T07:11:29.475Z,102018.94
2018-02-16T07:12:34.796Z,102018.11
2018-02-16T07:13:40.043Z,102018.14
2018-02-16T07:14:44.318Z,102020.22
2018-02-16T07:15:48.542Z,102022.34
2018-02-16T07:16:52.742Z,102023.55
2018-02-16T07:17:57.717Z,102020.52
2018-02-16T07:19:02.200Z,102020.66
2018-02-16T07:20:07.540Z,102023.33
2018-02-16T07:21:12.096Z,102028.86
2018-02-16T07:22:16.338Z,102028.45
2018-02-16T07:23:20.555Z,102028.89
2018-02-16T07:24:25.700Z,102033.44
2018-02-16T07:25:29.898Z,102032.65
2018-02-16T07:26:36.314Z,102042.69
2018-02-16T07:27:42.006Z,102035.97
2018-02-16T07:28:46.266Z,102036.84
2018-02-16T07:29:50.475Z,102040.72
2018-02-16T07:30:54.730Z,102046.28
2018-02-16T07:31:59.703Z,102037.86
2018-02-16T07:33:05.335Z,102039.56
2018-02-16T07:34:10.157Z,102042.58
2018-02-16T07:35:15.599Z,102047.27
2018-02-16T07:36:19.834Z,102046.47
2018-02-16T07:37:24.038Z,102049.44
2018-02-16T07:38:28.242Z,102047.81
2018-02-16T07:39:32.935Z,102054.20
2018-02-16T07:40:38.734Z,102045.78
2018-02-16T07:41:43.508Z,102053.82
2018-02-16T07:42:47.766Z,102053.36
2018-02-16T07:43:51.968Z,102061.42
2018-02-16T07:44:56.189Z,102056.92
2018-02-16T07:46:00.425Z,102060.30
2018-02-16T07:47:05.533Z,102059.14
2018-02-16T07:48:10.144Z,102064.33
2018-02-16T07:49:14.488Z,102062.20
2018-02-16T07:50:19.494Z,102061.86
2018-02-16T07:51:23.702Z,102060.64
2018-02-16T07:52:27.948Z,102068.71
2018-02-16T07:53:32.206Z,102074.28
2018-02-16T07:54:39.027Z,102069.80
2018-02-16T07:55:43.435Z,102067.79
2018-02-16T07:56:47.656Z,102070.42
2018-02-16T07:57:51.887Z,102070.96
2018-02-16T07:58:56.846Z,102070.55
2018-02-16T08:00:01.076Z,102076.92
2018-02-16T08:01:07.163Z,102081.58
2018-02-16T08:02:11.684Z,102079.47
2018-02-16T08:03:15.956Z,102082.44
2018-02-16T08:04:20.185Z,102088.88
2018-02-16T08:05:24.391Z,102089.42
2018-02-16T08:06:28.631Z,102097.13
2018-02-16T08:07:34.437Z,102095.14
2018-02-16T08:08:41.054Z,102095.25
2018-02-16T08:09:45.561Z,102095.33
2018-02-16T08:10:49.742Z,102100.44
2018-02-16T08:11:54.005Z,102106.85
2018-02-16T08:12:59.121Z,102097.63
2018-02-16T08:14:04.286Z,102095.55
2018-02-16T08:15:08.983Z,102092.30
2018-02-16T08:16:13.528Z,102091.09
2018-02-16T08:17:18.638Z,102098.41
2018-02-16T08:18:22.870Z,102098.89
2018-02-16T08:19:27.071Z,102101.52
2018-02-16T08:20:31.354Z,102106.68
2018-02-16T08:21:37.760Z,102109.30
2018-02-16T08:22:42.996Z,102110.59
2018-02-16T08:23:48.047Z,102112.45
2018-02-16T08:24:52.333Z,102114.15
2018-02-16T08:25:56.576Z,102113.34
2018-02-16T08:27:00.778Z,102117.19
2018-02-16T08:28:08.140Z,102115.88
2018-02-16T08:29:12.860Z,102119.28
2018-02-16T08:30:17.441Z,102116.31
2018-02-16T08:31:21.654Z,102120.98
2018-02-16T08:32:25.859Z,102120.57
2018-02-16T08:33:30.119Z,102121.05
2018-02-16T08:34:35.757Z,102127.91
2018-02-16T08:35:41.109Z,102128.41
2018-02-16T08:36:45.675Z,102124.19
2018-02-16T08:37:49.850Z,102128.48
2018-02-16T08:38:54.051Z,102130.25
2018-02-16T08:39:58.252Z,102125.68
2018-02-16T08:41:03.820Z,102128.72
2018-02-16T08:42:08.479Z,102129.20
2018-02-16T08:43:13.783Z,102125.92
2018-02-16T08:44:18.937Z,102128.48
2018-02-16T08:45:23.119Z,102126.84
2018-02-16T08:46:27.333Z,102132.77
2018-02-16T08:47:31.582Z,102129.44
2018-02-16T08:48:38.587Z,102135.45
2018-02-16T08:49:43.889Z,102139.28
2018-02-16T08:50:48.877Z,102137.66
2018-02-16T08:51:53.051Z,102133.52
2018-02-16T08:52:58.023Z,102141.33
2018-02-16T08:54:03.174Z,102144.48
2018-02-16T08:55:08.261Z,102138.13
2018-02-16T08:56:12.806Z,102144.16
2018-02-16T08:57:17.322Z,102140.89
2018-02-16T08:58:21.490Z,102145.58
2018-02-16T08:59:26.450Z,102149.81
2018-02-16T09:00:30.691Z,102147.38
2018-02-16T09:01:37.875Z,102147.86
2018-02-16T09:02:43.226Z,102154.34
2018-02-16T09:03:48.496Z,102157.45
2018-02-16T09:04:52.714Z,102162.55
2018-02-16T09:05:56.966Z,102166.50
2018-02-16T09:07:01.824Z,102161.53
2018-02-16T09:08:07.564Z,102161.72
2018-02-16T09:09:11.906Z,102165.97
2018-02-16T09:10:16.210Z,102169.58
2018-02-16T09:11:20.411Z,102174.25
2018-02-16T09:12:25.431Z,102170.99
2018-02-16T09:13:30.419Z,102174.95
2018-02-16T09:14:35.022Z,102180.10
2018-02-16T09:15:40.223Z,102179.05
2018-02-16T09:16:44.598Z,102178.15
2018-02-16T09:17:48.818Z,102177.84
2018-02-16T09:18:53.028Z,102183.88
2018-02-16T09:19:57.202Z,102189.67
2018-02-16T09:21:01.375Z,102193.07
2018-02-16T09:22:07.673Z,102190.34
2018-02-16T09:23:12.565Z,102193.06
2018-02-16T09:24:17.527Z,102196.59
2018-02-16T09:25:21.731Z,102195.77
2018-02-16T09:26:26.055Z,102196.30
2018-02-16T09:27:30.247Z,102198.89
2018-02-16T09:28:36.509Z,102202.41
2018-02-16T09:29:41.214Z,102199.52
2018-02-16T09:30:45.710Z,102214.33
2018-02-16T09:31:49.955Z,102214.38
2018-02-16T09:32:54.139Z,102212.02
2018-02-16T09:33:58.333Z,102209.58
2018-02-16T09:35:02.755Z,102209.37
2018-02-16T09:36:09.693Z,102211.12
2018-02-16T09:37:15.463Z,102213.34
2018-02-16T09:38:19.654Z,102208.39
2018-02-16T09:39:25.093Z,102208.45
2018-02-16T09:40:29.686Z,102207.30
2018-02-16T09:41:36.422Z,102210.02
2018-02-16T09:42:41.444Z,102213.46
2018-02-16T09:43:45.902Z,102214.00
2018-02-16T09:44:50.108Z,102214.10
2018-02-16T09:45:54.325Z,102216.69
2018-02-16T09:46:58.564Z,102219.80
2018-02-16T09:48:02.971Z,102219.80
2018-02-16T09:49:08.086Z,102225.08
2018-02-16T09:50:13.189Z,102221.27
2018-02-16T09:51:17.426Z,102224.34
2018-02-16T09:52:21.764Z,102231.98
2018-02-16T09:53:25.961Z,102227.85
2018-02-16T09:54:30.206Z,102228.34
2018-02-16T09:55:35.595Z,102230.47
2018-02-16T09:56:40.816Z,102234.80
2018-02-16T09:57:45.632Z,102233.95
2018-02-16T09:58:50.607Z,102239.45
2018-02-16T09:59:54.787Z,102232.41
2018-02-16T10:00:58.975Z,102235.05
2018-02-16T10:02:03.289Z,102242.84
2018-02-16T10:03:08.255Z,102242.26
2018-02-16T10:04:12.870Z,102243.56
2018-02-16T10:05:17.167Z,102249.70
2018-02-16T10:06:22.099Z,102247.27
2018-02-16T10:07:27.035Z,102252.45
2018-02-16T10:08:31.288Z,102248.27
2018-02-16T10:09:36.721Z,102244.25
2018-02-16T10:10:41.807Z,102248.09
2018-02-16T10:11:46.143Z,102247.89
2018-02-16T10:12:50.382Z,102256.08
2018-02-16T10:13:54.608Z,102250.64
2018-02-16T10:14:58.812Z,102257.95
2018-02-16T10:16:03.598Z,102260.51
2018-02-16T10:17:08.188Z,102258.84
2018-02-16T10:18:13.754Z,102266.94
2018-02-16T10:19:18.030Z,102262.12
2018-02-16T10:20:22.196Z,102268.13
2018-02-16T10:21:26.366Z,102266.97
2018-02-16T10:22:31.314Z,102273.24
2018-02-16T10:23:37.188Z,102273.91
2018-02-16T10:24:42.600Z,102281.58
2018-02-16T10:25:46.853Z,102279.46
2018-02-16T10:26:51.095Z,102274.70
2018-02-16T10:27:55.401Z,102273.97
2018-02-16T10:28:59.576Z,102280.45
2018-02-16T10:30:04.611Z,102283.42
2018-02-16T10:31:09.194Z,102274.17
2018-02-16T10:32:13.595Z,102279.36
2018-02-16T10:33:17.837Z,102281.87
2018-02-16T10:34:22.027Z,102283.62
2018-02-16T10:35:26.196Z,102284.16
2018-02-16T10:36:30.410Z,102289.84
2018-02-16T10:37:35.328Z,102288.16
2018-02-16T10:38:40.310Z,102285.31
2018-02-16T10:39:44.944Z,102279.02
2018-02-16T10:40:49.180Z,102279.42
2018-02-16T10:41:53.376Z,102287.21
2018-02-16T10:42:57.593Z,102287.13
2018-02-16T10:44:01.787Z,102286.78
2018-02-16T10:45:07.843Z,102285.10
2018-02-16T10:46:12.163Z,102284.34
2018-02-16T10:47:16.485Z,102285.75
2018-02-16T10:48:20.722Z,102283.30
2018-02-16T10:49:24.902Z,102283.77
2018-02-16T10:50:29.080Z,102290.11
2018-02-16T10:51:33.719Z,102290.44
2018-02-16T10:52:39.206Z,102287.45
2018-02-16T10:53:44.967Z,102287.63
2018-02-16T10:54:49.219Z,102290.69
2018-02-16T10:55:53.407Z,102291.00
2018-02-16T10:56:58.335Z,102300.20
2018-02-16T10:58:03.779Z,102299.68
2018-02-16T10:59:08.545Z,102298.88
2018-02-16T11:00:14.306Z,102300.63
2018-02-16T11:01:19.726Z,102305.44
2018-02-16T11:02:29.505Z,102300.49
2018-02-16T11:03:38.522Z,102294.02
2018-02-16T11:04:48.303Z,102301.36
2018-02-16T11:06:02.221Z,102294.02
2018-02-16T11:07:13.363Z,102297.04
2018-02-16T11:08:23.076Z,102298.27
2018-02-16T11:09:27.534Z,102302.94
2018-02-16T11:10:32.926Z,102300.84
2018-02-16T11:11:38.421Z,102299.17
2018-02-16T11:12:42.710Z,102296.88
2018-02-16T11:13:47.711Z,102306.18
2018-02-16T11:14:51.884Z,102297.39
2018-02-16T11:15:56.858Z,102304.66
2018-02-16T11:17:01.036Z,102300.06
2018-02-16T11:18:06.187Z,102297.63
2018-02-16T11:19:10.773Z,102296.50
2018-02-16T11:20:15.857Z,102297.12
2018-02-16T11:21:20.137Z,102299.06
2018-02-16T11:22:24.323Z,102303.05
2018-02-16T11:23:29.263Z,102304.47
2018-02-16T11:24:33.971Z,102305.76
2018-02-16T11:25:38.408Z,102300.19
2018-02-16T11:26:42.764Z,102294.44
2018-02-16T11:27:47.097Z,102297.86
2018-02-16T11:28:51.316Z,102303.44
2018-02-16T11:29:55.508Z,102307.23
2018-02-16T11:30:59.700Z,102308.13
2018-02-16T11:32:04.494Z,102310.17
2018-02-16T11:33:08.944Z,102309.86
2018-02-16T11:34:13.479Z,102313.77
2018-02-16T11:35:18.481Z,102313.42
2018-02-16T11:36:22.695Z,102324.63
2018-02-16T11:37:26.887Z,102318.77
2018-02-16T11:38:31.106Z,102315.44
2018-02-16T11:39:36.096Z,102319.80
2018-02-16T11:40:40.921Z,102316.95
2018-02-16T11:41:46.622Z,102318.34
2018-02-16T11:42:50.859Z,102326.08
2018-02-16T11:43:55.029Z,102321.00
2018-02-16T11:44:59.368Z,102321.39
2018-02-16T11:46:03.957Z,102323.58
2018-02-16T11:47:08.844Z,102329.95
2018-02-16T11:48:13.400Z,102330.82
2018-02-16T11:49:17.654Z,102330.50
2018-02-16T11:50:21.837Z,102326.67
2018-02-16T11:51:26.042Z,102328.30
2018-02-16T11:52:30.230Z,102327.39
2018-02-16T11:53:35.294Z,102334.28
2018-02-16T11:54:40.129Z,102333.56
2018-02-16T11:55:44.482Z,102336.70
2018-02-16T11:56:48.769Z,102335.03
2018-02-16T11:57:52.959Z,102337.98
2018-02-16T11:58:57.158Z,102336.68
2018-02-16T12:00:01.376Z,102344.79
2018-02-16T12:01:07.288Z,102344.12
2018-02-16T12:02:11.567Z,102334.00
2018-02-16T12:03:15.853Z,102338.73
2018-02-16T12:04:20.041Z,102340.01
2018-02-16T12:05:24.239Z,102341.21
2018-02-16T12:06:28.403Z,102350.14
2018-02-16T12:07:35.540Z,102343.64
2018-02-16T12:08:39.939Z,102350.84
2018-02-16T12:09:44.415Z,102349.11
2018-02-16T12:10:49.152Z,102346.41
2018-02-16T12:11:53.404Z,102350.27
2018-02-16T12:12:57.593Z,102348.00
2018-02-16T12:14:03.536Z,102341.13
2018-02-16T12:15:08.207Z,102349.97
2018-02-16T12:16:12.629Z,102349.22
2018-02-16T12:17:17.014Z,102348.08
2018-02-16T12:18:21.192Z,102360.28